createdAt,value
2017-08-25T00:00:23.706Z,24.08
2017-08-25T00:01:34.043Z,24.18
2017-08-25T00:02:44.128Z,24.33
2017-08-25T00:03:54.160Z,24.4
2017-08-25T00:05:04.499Z,24.54
2017-08-25T00:06:14.830Z,24.69
2017-08-25T00:07:24.854Z,24.77
2017-08-25T00:08:35.260Z,24.77
2017-08-25T00:09:45.619Z,24.86
2017-08-25T00:10:55.973Z,25.02
2017-08-25T00:12:06.353Z,25.08
2017-08-25T00:13:16.405Z,25.14
2017-08-25T00:14:26.473Z,25.22
2017-08-25T00:15:36.820Z,25.32
2017-08-25T00:16:46.851Z,25.27
2017-08-25T00:17:58.512Z,25.38
2017-08-25T00:19:08.853Z,25.42
2017-08-25T00:20:18.935Z,25.51
2017-08-25T00:21:30.848Z,25.52
2017-08-25T00:22:40.574Z,25.63
2017-08-25T00:23:50.926Z,25.71
2017-08-25T00:25:01.283Z,25.74
2017-08-25T00:26:11.688Z,25.75
2017-08-25T00:27:22.044Z,25.81
2017-08-25T00:28:32.384Z,25.84
2017-08-25T00:29:42.736Z,25.79
2017-08-25T00:30:52.780Z,25.99
2017-08-25T00:32:04.521Z,26
2017-08-25T00:33:14.567Z,26.01
2017-08-25T00:34:24.918Z,26.07
2017-08-25T00:35:35.295Z,26.16
2017-08-25T00:36:45.325Z,26.19
2017-08-25T00:37:55.716Z,26.2
2017-08-25T00:39:06.060Z,26.24
2017-08-25T00:40:16.407Z,26.27
2017-08-25T00:41:28.894Z,26.32
2017-08-25T00:42:38.940Z,26.35
2017-08-25T00:43:49.010Z,26.41
2017-08-25T00:44:59.052Z,26.31
2017-08-25T00:46:09.400Z,26.35
2017-08-25T00:47:19.768Z,26.31
2017-08-25T00:48:30.119Z,26.39
2017-08-25T00:49:40.507Z,26.39
2017-08-25T00:50:50.531Z,26.26
2017-08-25T00:52:00.879Z,26.42
2017-08-25T00:53:11.245Z,26.3
2017-08-25T00:54:21.594Z,26.41
2017-08-25T00:55:31.989Z,26.44
2017-08-25T00:56:42.345Z,26.31
2017-08-25T00:57:52.684Z,26.44
2017-08-25T00:59:02.704Z,26.42
2017-08-25T01:00:13.044Z,26.45
2017-08-25T01:01:23.449Z,26.45
2017-08-25T01:02:33.477Z,26.44
2017-08-25T01:03:43.503Z,26.47
2017-08-25T01:04:53.849Z,26.45
2017-08-25T01:06:04.191Z,26.45
2017-08-25T01:07:14.577Z,26.44
2017-08-25T01:08:24.605Z,26.49
2017-08-25T01:09:34.937Z,26.41
2017-08-25T01:10:45.288Z,26.45
2017-08-25T01:11:55.629Z,26.42
2017-08-25T01:13:05.716Z,26.42
2017-08-25T01:14:15.791Z,26.31
2017-08-25T01:15:26.140Z,26.32
2017-08-25T01:16:36.489Z,26.42
2017-08-25T01:17:46.838Z,26.32
2017-08-25T01:18:56.911Z,26.31
2017-08-25T01:20:08.608Z,26.31
2017-08-25T01:21:18.957Z,26.31
2017-08-25T01:22:29.321Z,26.26
2017-08-25T01:23:39.344Z,26.23
2017-08-25T01:24:49.720Z,26.22
2017-08-25T01:25:59.746Z,26.16
2017-08-25T01:27:09.807Z,26.17
2017-08-25T01:28:20.174Z,26.07
2017-08-25T01:29:30.192Z,26.01
2017-08-25T01:30:40.274Z,26
2017-08-25T01:31:50.621Z,25.94
2017-08-25T01:33:00.957Z,25.89
2017-08-25T01:34:11.308Z,25.94
2017-08-25T01:35:21.673Z,25.82
2017-08-25T01:36:32.086Z,25.88
2017-08-25T01:37:42.419Z,25.82
2017-08-25T01:38:52.802Z,25.84
2017-08-25T01:40:02.832Z,25.78
2017-08-25T01:41:12.864Z,25.88
2017-08-25T01:42:23.279Z,25.76
2017-08-25T01:43:33.312Z,25.86
2017-08-25T01:44:43.349Z,25.88
2017-08-25T01:45:54.250Z,25.89
2017-08-25T01:47:04.602Z,25.81
2017-08-25T01:48:14.994Z,25.81
2017-08-25T01:49:25.022Z,25.75
2017-08-25T01:50:35.358Z,25.84
2017-08-25T01:51:45.714Z,25.86
2017-08-25T01:52:56.053Z,25.82
2017-08-25T01:54:06.169Z,25.82
2017-08-25T01:55:16.210Z,25.86
2017-08-25T01:56:26.544Z,25.86
2017-08-25T01:57:36.889Z,25.89
2017-08-25T01:58:46.925Z,25.94
2017-08-25T01:59:57.307Z,25.94
2017-08-25T02:01:07.654Z,26
2017-08-25T02:02:18.006Z,25.97
2017-08-25T02:03:28.068Z,25.93
2017-08-25T02:04:38.415Z,25.91
2017-08-25T02:05:48.831Z,25.91
2017-08-25T02:06:58.842Z,25.96
2017-08-25T02:08:09.184Z,25.94
2017-08-25T02:09:19.557Z,25.85
2017-08-25T02:10:29.904Z,25.82
2017-08-25T02:11:39.998Z,25.86
2017-08-25T02:12:49.714Z,25.81
2017-08-25T02:14:00.290Z,25.86
2017-08-25T02:15:10.645Z,25.88
2017-08-25T02:16:20.689Z,25.89
2017-08-25T02:17:31.083Z,25.85
2017-08-25T02:18:42.343Z,25.86
2017-08-25T02:19:52.695Z,25.82
2017-08-25T02:21:03.043Z,25.69
2017-08-25T02:22:13.392Z,25.74
2017-08-25T02:23:23.484Z,25.71
2017-08-25T02:24:33.835Z,25.7
2017-08-25T02:25:43.886Z,25.75
2017-08-25T02:26:54.233Z,25.75
2017-08-25T02:28:04.579Z,25.69
2017-08-25T02:29:14.981Z,25.63
2017-08-25T02:30:25.366Z,25.63
2017-08-25T02:31:35.705Z,25.63
2017-08-25T02:32:46.073Z,25.62
2017-08-25T02:33:56.414Z,25.71
2017-08-25T02:35:06.808Z,25.66
2017-08-25T02:36:16.837Z,25.75
2017-08-25T02:37:26.882Z,25.74
2017-08-25T02:38:37.221Z,25.76
2017-08-25T02:39:47.626Z,25.74
2017-08-25T02:40:58.024Z,25.75
2017-08-25T02:42:08.056Z,25.74
2017-08-25T02:43:18.413Z,25.71
2017-08-25T02:44:28.449Z,25.74
2017-08-25T02:45:38.807Z,25.7
2017-08-25T02:46:49.192Z,25.71
2017-08-25T02:47:59.554Z,25.75
2017-08-25T02:49:09.907Z,25.7
2017-08-25T02:50:19.946Z,25.75
2017-08-25T02:51:30.285Z,25.74
2017-08-25T02:52:40.683Z,25.78
2017-08-25T02:53:50.710Z,25.71
2017-08-25T02:55:01.063Z,25.66
2017-08-25T02:56:11.414Z,25.76
2017-08-25T02:57:21.789Z,25.66
2017-08-25T02:58:32.191Z,25.63
2017-08-25T02:59:42.570Z,25.71
2017-08-25T03:00:52.919Z,25.59
2017-08-25T03:33:15.338Z,22.59
2017-08-25T03:34:25.037Z,22.52
2017-08-25T03:35:35.043Z,22.45
2017-08-25T03:36:45.392Z,22.51
2017-08-25T03:37:55.755Z,22.52
2017-08-25T03:39:06.167Z,22.59
2017-08-25T03:40:16.519Z,22.69
2017-08-25T03:41:26.862Z,22.69
2017-08-25T03:42:37.216Z,22.85
2017-08-25T03:43:47.570Z,22.91
2017-08-25T03:44:57.643Z,23.09
2017-08-25T03:46:07.674Z,23.15
2017-08-25T03:47:18.014Z,23.26
2017-08-25T03:48:30.529Z,23.47
2017-08-25T03:49:40.248Z,23.6
2017-08-25T03:50:50.334Z,23.59
2017-08-25T03:52:00.682Z,23.72
2017-08-25T03:53:11.019Z,23.77
2017-08-25T03:54:21.360Z,23.92
2017-08-25T03:55:31.086Z,24.03
2017-08-25T03:56:41.474Z,24
2017-08-25T03:57:51.821Z,24.14
2017-08-25T03:59:02.175Z,24.17
2017-08-25T04:00:12.527Z,24.24
2017-08-25T04:01:22.867Z,24.3
2017-08-25T04:02:33.274Z,24.39
2017-08-25T04:03:43.619Z,24.52
2017-08-25T04:04:53.947Z,24.45
2017-08-25T04:06:03.985Z,24.49
2017-08-25T04:07:14.013Z,24.54
2017-08-25T04:08:24.402Z,24.55
2017-08-25T04:09:34.750Z,24.52
2017-08-25T04:10:45.338Z,24.56
2017-08-25T04:11:55.667Z,24.69
2017-08-25T04:13:05.368Z,24.58
2017-08-25T04:14:15.765Z,24.61
2017-08-25T04:15:26.106Z,24.67
2017-08-25T04:16:36.144Z,24.78
2017-08-25T04:17:46.164Z,24.69
2017-08-25T04:18:56.497Z,24.75
2017-08-25T04:20:06.581Z,24.78
2017-08-25T04:21:16.606Z,24.78
2017-08-25T04:22:26.943Z,24.9
2017-08-25T04:23:36.669Z,24.89
2017-08-25T04:24:47.008Z,24.89
2017-08-25T04:25:57.407Z,24.86
2017-08-25T04:27:07.760Z,24.96
2017-08-25T04:28:18.112Z,25.04
2017-08-25T04:29:28.165Z,25.04
2017-08-25T04:30:38.520Z,25.11
2017-08-25T04:31:48.593Z,25.04
2017-08-25T04:32:58.620Z,25.11
2017-08-25T04:34:08.956Z,25.17
2017-08-25T04:35:18.972Z,25.19
2017-08-25T04:36:28.678Z,25.22
2017-08-25T04:37:39.068Z,25.22
2017-08-25T04:38:49.397Z,25.27
2017-08-25T04:39:59.755Z,25.29
2017-08-25T04:41:09.782Z,25.41
2017-08-25T04:42:20.135Z,25.45
2017-08-25T04:43:30.209Z,25.48
2017-08-25T04:44:40.557Z,25.56
2017-08-25T04:45:50.896Z,25.49
2017-08-25T04:47:01.240Z,25.54
2017-08-25T04:48:11.586Z,25.59
2017-08-25T04:49:21.978Z,25.62
2017-08-25T04:50:32.024Z,25.56
2017-08-25T04:51:42.373Z,25.74
2017-08-25T04:52:52.719Z,25.69
2017-08-25T04:54:02.750Z,25.64
2017-08-25T04:55:12.817Z,25.71
2017-08-25T04:56:22.533Z,25.81
2017-08-25T04:57:32.872Z,26.01
2017-08-25T04:58:42.897Z,26.42
2017-08-25T04:59:53.235Z,26.42
2017-08-25T05:01:03.307Z,26.32
2017-08-25T05:02:13.628Z,26.26
2017-08-25T05:03:23.974Z,26.38
2017-08-25T05:04:34.320Z,26.27
2017-08-25T05:05:44.338Z,26.34
2017-08-25T05:06:54.756Z,26.32
2017-08-25T05:08:04.791Z,26.49
2017-08-25T05:09:15.128Z,27.11
2017-08-25T05:10:25.184Z,26.93
2017-08-25T05:11:35.213Z,26.72
2017-08-25T05:12:45.593Z,26.64
2017-08-25T05:13:55.932Z,26.6
2017-08-25T05:15:05.958Z,26.54
2017-08-25T05:16:16.311Z,26.54
2017-08-25T05:17:26.370Z,26.59
2017-08-25T05:18:38.268Z,26.59
2017-08-25T05:19:48.600Z,26.63
2017-08-25T05:20:58.951Z,26.57
2017-08-25T05:22:08.973Z,26.71
2017-08-25T05:23:18.999Z,26.75
2017-08-25T05:24:28.760Z,26.81
2017-08-25T05:25:39.118Z,26.89
2017-08-25T05:26:49.462Z,27.04
2017-08-25T05:27:59.484Z,27
2017-08-25T05:29:09.521Z,26.97
2017-08-25T05:30:19.931Z,27.11
2017-08-25T05:31:30.287Z,27.08
2017-08-25T05:32:40.654Z,27.09
2017-08-25T05:33:50.688Z,27.23
2017-08-25T05:35:01.044Z,27.36
2017-08-25T05:36:11.444Z,27.45
2017-08-25T05:37:21.782Z,27.46
2017-08-25T05:38:31.802Z,27.45
2017-08-25T05:39:42.154Z,27.41
2017-08-25T05:40:52.507Z,27.66
2017-08-25T05:42:02.581Z,27.91
2017-08-25T05:43:12.290Z,27.93
2017-08-25T05:44:22.628Z,28.05
2017-08-25T05:45:32.974Z,28.16
2017-08-25T05:46:42.993Z,28.75
2017-08-25T05:47:53.062Z,29.33
2017-08-25T05:49:03.404Z,29.42
2017-08-25T05:50:15.811Z,29.21
2017-08-25T05:51:26.152Z,28.86
2017-08-25T05:52:36.499Z,28.85
2017-08-25T05:53:46.897Z,28.85
2017-08-25T05:54:57.237Z,28.9
2017-08-25T05:56:07.571Z,29.15
2017-08-25T05:57:17.592Z,29.43
2017-08-25T05:58:27.622Z,29.47
2017-08-25T05:59:38.010Z,29.51
2017-08-25T06:00:48.047Z,29.76
2017-08-25T06:01:58.103Z,30.04
2017-08-25T06:03:08.445Z,30.29
2017-08-25T06:04:18.473Z,30.45
2017-08-25T06:05:28.877Z,30.28
2017-08-25T06:06:39.227Z,30.18
2017-08-25T06:07:49.237Z,30.19
2017-08-25T06:08:59.289Z,30.16
2017-08-25T06:10:09.646Z,30.22
2017-08-25T06:11:20.047Z,30.34
2017-08-25T06:12:30.066Z,30.31
2017-08-25T06:13:40.418Z,30.24
2017-08-25T06:14:50.444Z,30.11
2017-08-25T06:16:00.467Z,30.03
2017-08-25T06:17:10.857Z,30.07
2017-08-25T06:18:21.450Z,30
2017-08-25T06:19:31.794Z,29.91
2017-08-25T06:20:42.686Z,29.77
2017-08-25T06:21:52.723Z,29.76
2017-08-25T06:23:02.799Z,29.66
2017-08-25T06:24:13.443Z,29.57
2017-08-25T06:25:23.844Z,29.52
2017-08-25T06:26:34.201Z,29.38
2017-08-25T06:27:44.227Z,29.5
2017-08-25T06:28:54.610Z,29.33
2017-08-25T06:30:04.962Z,29.33
2017-08-25T06:31:15.303Z,29.32
2017-08-25T06:32:25.641Z,29.29
2017-08-25T06:33:36.012Z,29.26
2017-08-25T06:34:46.424Z,29.35
2017-08-25T06:35:56.763Z,29.35
2017-08-25T06:37:09.176Z,29.47
2017-08-25T06:38:19.534Z,29.42
2017-08-25T06:39:29.891Z,29.51
2017-08-25T06:40:39.966Z,29.47
2017-08-25T06:41:50.250Z,29.54
2017-08-25T06:43:00.617Z,29.57
2017-08-25T06:44:10.954Z,29.54
2017-08-25T06:45:21.294Z,29.48
2017-08-25T06:46:31.047Z,29.48
2017-08-25T06:47:40.754Z,29.48
2017-08-25T06:48:51.097Z,29.33
2017-08-25T06:50:01.168Z,29.1
2017-08-25T06:51:11.514Z,29.11
2017-08-25T06:52:21.906Z,29.08
2017-08-25T06:53:32.256Z,28.98
2017-08-25T06:54:42.602Z,28.95
2017-08-25T06:55:52.666Z,28.97
2017-08-25T06:57:02.702Z,28.97
2017-08-25T06:58:13.095Z,28.98
2017-08-25T06:59:23.466Z,28.98
2017-08-25T07:00:33.846Z,28.97
2017-08-25T07:01:45.759Z,28.92
2017-08-25T07:02:55.790Z,28.9
2017-08-25T07:04:06.184Z,28.85
2017-08-25T07:05:16.214Z,28.88
2017-08-25T07:06:26.561Z,28.9
2017-08-25T07:07:36.908Z,28.85
2017-08-25T07:08:46.620Z,29.14
2017-08-25T07:09:56.688Z,29.24
2017-08-25T07:11:06.730Z,29.23
2017-08-25T07:12:17.070Z,29.29
2017-08-25T07:13:27.355Z,29.28
2017-08-25T07:14:37.389Z,29.33
2017-08-25T07:15:48.090Z,29.42
2017-08-25T07:16:58.436Z,29.5
2017-08-25T07:18:08.796Z,29.55
2017-08-25T07:19:20.049Z,29.67
2017-08-25T07:20:34.219Z,29.77
2017-08-25T07:21:44.614Z,29.87
2017-08-25T07:22:54.969Z,29.81
2017-08-25T07:24:05.312Z,29.91
2017-08-25T07:25:15.668Z,29.94
2017-08-25T07:26:26.016Z,30
2017-08-25T07:27:36.431Z,29.97
2017-08-25T07:28:46.780Z,30.02
2017-08-25T07:29:56.497Z,30.03
2017-08-25T07:31:06.528Z,29.94
2017-08-25T07:32:16.875Z,29.88
2017-08-25T07:33:26.976Z,29.75
2017-08-25T07:34:37.326Z,29.77
2017-08-25T07:35:47.683Z,29.72
2017-08-25T07:36:58.032Z,29.66
2017-08-25T07:38:08.080Z,29.63
2017-08-25T07:39:18.157Z,29.69
2017-08-25T07:40:28.514Z,29.77
2017-08-25T07:41:38.869Z,29.79
2017-08-25T07:42:48.577Z,29.98
2017-08-25T07:43:58.294Z,30.1
2017-08-25T07:45:08.644Z,30.26
2017-08-25T07:46:19.004Z,30.47
2017-08-25T07:47:29.399Z,30.75
2017-08-25T07:48:39.741Z,30.93
2017-08-25T07:49:50.102Z,31.19
2017-08-25T07:51:00.455Z,31.41
2017-08-25T07:52:10.817Z,31.58
2017-08-25T07:53:21.219Z,31.71
2017-08-25T07:54:32.497Z,31.8
2017-08-25T07:55:42.507Z,31.94
2017-08-25T07:56:52.863Z,32.03
2017-08-25T07:58:03.207Z,32.03
2017-08-25T07:59:13.566Z,32.34
2017-08-25T08:00:23.913Z,32.28
2017-08-25T08:01:33.951Z,32.42
2017-08-25T08:02:44.033Z,32.35
2017-08-25T08:03:54.390Z,32.16
2017-08-25T08:05:04.745Z,32.13
2017-08-25T08:06:15.103Z,32.23
2017-08-25T08:07:25.152Z,32.1
2017-08-25T08:08:35.557Z,32.05
2017-08-25T08:09:45.919Z,31.86
2017-08-25T08:10:56.260Z,31.94
2017-08-25T08:12:05.979Z,31.77
2017-08-25T08:13:16.028Z,31.65
2017-08-25T08:14:27.069Z,31.65
2017-08-25T08:15:37.166Z,31.71
2017-08-25T08:16:47.508Z,31.63
2017-08-25T08:17:57.567Z,31.71
2017-08-25T08:19:07.931Z,31.7
2017-08-25T08:20:18.347Z,31.74
2017-08-25T08:21:28.711Z,31.86
2017-08-25T08:22:38.741Z,31.94
2017-08-25T08:23:49.134Z,31.91
2017-08-25T08:24:59.165Z,31.72
2017-08-25T08:26:09.266Z,31.71
2017-08-25T08:27:21.770Z,31.63
2017-08-25T08:28:32.112Z,31.55
2017-08-25T08:29:42.143Z,31.56
2017-08-25T08:30:52.171Z,31.6
2017-08-25T08:32:01.952Z,31.6
2017-08-25T08:33:12.338Z,31.75
2017-08-25T08:34:22.396Z,31.82
2017-08-25T08:35:32.421Z,31.9
2017-08-25T08:36:42.455Z,31.8
2017-08-25T08:37:52.849Z,31.77
2017-08-25T08:39:03.216Z,31.81
2017-08-25T08:40:13.259Z,31.81
2017-08-25T08:41:23.598Z,31.87
2017-08-25T08:42:33.948Z,31.91
2017-08-25T08:43:44.343Z,31.93
2017-08-25T08:44:54.389Z,31.93
2017-08-25T08:46:04.728Z,31.88
2017-08-25T08:47:14.769Z,31.91
2017-08-25T08:48:25.121Z,32.03
2017-08-25T08:49:35.235Z,31.97
2017-08-25T08:50:45.599Z,31.87
2017-08-25T08:51:55.950Z,31.94
2017-08-25T08:53:06.313Z,31.97
2017-08-25T08:54:16.654Z,32.01
2017-08-25T08:55:26.746Z,31.95
2017-08-25T08:56:37.093Z,32
2017-08-25T08:57:47.455Z,31.98
2017-08-25T08:58:57.803Z,31.88
2017-08-25T09:00:08.175Z,31.98
2017-08-25T09:01:18.567Z,32.09
2017-08-25T09:02:28.928Z,32.15
2017-08-25T09:03:39.324Z,32.35
2017-08-25T09:04:49.657Z,32.38
2017-08-25T09:06:00.015Z,32.39
2017-08-25T09:07:10.408Z,32.54
2017-08-25T09:08:20.755Z,32.53
2017-08-25T09:09:31.104Z,32.59
2017-08-25T09:10:41.460Z,32.64
2017-08-25T09:11:51.812Z,32.65
2017-08-25T09:13:02.212Z,32.68
2017-08-25T09:14:16.446Z,32.57
2017-08-25T09:15:26.163Z,32.65
2017-08-25T09:16:36.539Z,32.69
2017-08-25T09:17:46.890Z,32.76
2017-08-25T09:18:56.671Z,32.65
2017-08-25T09:20:07.020Z,32.68
2017-08-25T09:21:17.066Z,32.71
2017-08-25T09:22:26.466Z,32.74
2017-08-25T09:23:36.490Z,32.72
2017-08-25T09:24:46.835Z,32.84
2017-08-25T09:25:57.201Z,32.98
2017-08-25T09:27:06.918Z,32.93
2017-08-25T09:28:17.353Z,33.01
2017-08-25T09:29:27.382Z,32.98
2017-08-25T09:30:37.753Z,33.06
2017-08-25T09:31:47.781Z,33.12
2017-08-25T09:33:00.081Z,33.17
2017-08-25T09:34:10.514Z,33.2
2017-08-25T09:35:20.569Z,33.26
2017-08-25T09:36:30.289Z,33.32
2017-08-25T09:37:40.629Z,33.26
2017-08-25T09:38:50.686Z,33.26
2017-08-25T09:40:01.082Z,33.34
2017-08-25T09:41:11.457Z,33.31
2017-08-25T09:42:21.801Z,33.39
2017-08-25T09:43:31.841Z,33.41
2017-08-25T09:44:45.906Z,33.43
2017-08-25T09:45:56.328Z,33.46
2017-08-25T09:47:06.362Z,33.56
2017-08-25T09:48:16.400Z,33.55
2017-08-25T09:49:26.433Z,33.61
2017-08-25T09:50:36.194Z,33.52
2017-08-25T09:51:46.291Z,33.53
2017-08-25T09:52:56.338Z,33.52
2017-08-25T09:54:06.416Z,33.48
2017-08-25T09:55:16.467Z,33.5
2017-08-25T09:56:26.837Z,33.58
2017-08-25T09:57:36.906Z,33.61
2017-08-25T09:58:47.244Z,33.59
2017-08-25T09:59:57.299Z,33.62
2017-08-25T10:01:07.672Z,33.63
2017-08-25T10:02:17.727Z,33.68
2017-08-25T10:03:27.805Z,33.78
2017-08-25T10:04:38.148Z,33.87
2017-08-25T10:05:48.180Z,33.95
2017-08-25T10:06:58.535Z,33.9
2017-08-25T10:08:08.571Z,33.99
2017-08-25T10:09:18.979Z,33.87
2017-08-25T10:10:30.916Z,34.03
2017-08-25T10:11:40.952Z,34.02
2017-08-25T10:12:50.983Z,34.08
2017-08-25T10:14:04.742Z,34.02
2017-08-25T10:15:15.147Z,34.05
2017-08-25T10:16:25.495Z,34.11
2017-08-25T10:17:35.540Z,34.08
2017-08-25T10:18:45.572Z,34.11
2017-08-25T10:19:55.974Z,34.12
2017-08-25T10:21:06.070Z,34.22
2017-08-25T10:22:16.437Z,34.36
2017-08-25T10:23:26.804Z,34.37
2017-08-25T10:24:36.841Z,34.36
2017-08-25T10:25:47.124Z,34.39
2017-08-25T10:26:57.525Z,34.45
2017-08-25T10:28:07.871Z,34.52
2017-08-25T10:29:17.933Z,34.55
2017-08-25T10:30:27.957Z,34.55
2017-08-25T10:31:38.298Z,34.61
2017-08-25T10:32:48.724Z,34.67
2017-08-25T10:33:58.763Z,34.69
2017-08-25T10:35:09.120Z,34.86
2017-08-25T10:36:19.469Z,34.86
2017-08-25T10:37:29.829Z,34.77
2017-08-25T10:38:40.230Z,34.91
2017-08-25T10:39:50.275Z,34.99
2017-08-25T10:41:00.325Z,35.01
2017-08-25T10:42:10.674Z,34.96
2017-08-25T10:43:20.706Z,35.01
2017-08-25T10:44:31.110Z,35.02
2017-08-25T10:45:41.471Z,34.97
2017-08-25T10:46:51.845Z,35.01
2017-08-25T10:48:02.181Z,35.05
2017-08-25T10:49:12.569Z,35.06
2017-08-25T10:50:24.906Z,35.15
2017-08-25T10:51:35.253Z,35.2
2017-08-25T10:52:45.626Z,35.2
2017-08-25T10:53:55.652Z,35.23
2017-08-25T10:55:06.052Z,35.33
2017-08-25T10:56:16.433Z,35.38
2017-08-25T10:57:26.806Z,35.43
2017-08-25T10:58:37.174Z,35.46
2017-08-25T10:59:47.229Z,35.55
2017-08-25T11:00:57.638Z,35.58
2017-08-25T11:02:07.998Z,35.64
2017-08-25T11:03:18.351Z,35.69
2017-08-25T11:04:28.711Z,35.77
2017-08-25T11:05:39.091Z,35.82
2017-08-25T11:06:49.499Z,35.69
2017-08-25T11:07:59.549Z,35.72
2017-08-25T11:09:09.581Z,35.74
2017-08-25T11:10:19.948Z,35.71
2017-08-25T11:11:30.291Z,35.67
2017-08-25T11:12:40.652Z,35.69
2017-08-25T11:13:50.996Z,35.68
2017-08-25T11:15:01.079Z,35.72
2017-08-25T11:16:11.434Z,35.82
2017-08-25T11:17:21.790Z,35.86
2017-08-25T11:18:32.151Z,35.83
2017-08-25T11:19:42.497Z,35.8
2017-08-25T11:20:52.592Z,35.87
2017-08-25T11:22:02.934Z,35.99
2017-08-25T11:23:13.283Z,35.98
2017-08-25T11:24:23.638Z,36.12
2017-08-25T11:25:35.646Z,36.05
2017-08-25T11:26:45.735Z,36.09
2017-08-25T11:27:55.771Z,36.06
2017-08-25T11:29:06.139Z,36.21
2017-08-25T11:30:15.857Z,36.17
2017-08-25T11:31:26.210Z,36.06
2017-08-25T11:32:36.625Z,36.12
2017-08-25T11:33:46.663Z,36.05
2017-08-25T11:34:57.011Z,36.08
2017-08-25T11:36:07.374Z,36.12
2017-08-25T11:37:17.763Z,35.99
2017-08-25T11:38:28.174Z,35.96
2017-08-25T11:39:38.546Z,35.94
2017-08-25T11:40:48.894Z,35.95
2017-08-25T11:41:59.248Z,36.02
2017-08-25T11:43:09.596Z,35.87
2017-08-25T11:44:20.008Z,35.77
2017-08-25T11:45:30.043Z,35.87
2017-08-25T11:46:40.414Z,35.94
2017-08-25T11:47:50.763Z,35.9
2017-08-25T11:49:01.131Z,36.05
2017-08-25T11:50:11.546Z,36.14
2017-08-25T11:51:21.884Z,36.05
2017-08-25T11:52:32.254Z,36.22
2017-08-25T11:53:42.303Z,36.21
2017-08-25T11:54:52.674Z,36.32
2017-08-25T11:56:05.345Z,36.32
2017-08-25T11:57:15.762Z,36.28
2017-08-25T11:58:26.120Z,36.26
2017-08-25T11:59:36.485Z,36.36
2017-08-25T12:00:46.839Z,36.44
2017-08-25T12:01:56.921Z,36.51
2017-08-25T12:03:07.272Z,36.61
2017-08-25T12:04:17.299Z,36.63
2017-08-25T12:05:27.335Z,36.59
2017-08-25T12:06:37.691Z,36.73
2017-08-25T12:07:47.797Z,36.81
2017-08-25T12:08:58.141Z,36.74
2017-08-25T12:10:08.499Z,36.73
2017-08-25T12:11:18.871Z,36.75
2017-08-25T12:12:28.926Z,36.62
2017-08-25T12:13:39.037Z,36.62
2017-08-25T12:14:49.388Z,36.62
2017-08-25T12:15:59.741Z,36.55
2017-08-25T12:17:11.397Z,36.7
2017-08-25T12:18:21.438Z,36.68
2017-08-25T12:19:31.832Z,36.8
2017-08-25T12:20:42.188Z,36.74
2017-08-25T12:21:52.539Z,36.68
2017-08-25T12:23:02.880Z,36.68
2017-08-25T12:24:12.915Z,36.73
2017-08-25T12:25:23.010Z,36.62
2017-08-25T12:26:33.050Z,36.61
2017-08-25T12:27:45.704Z,36.65
2017-08-25T12:28:55.735Z,36.61
2017-08-25T12:30:06.076Z,36.58
2017-08-25T12:31:16.472Z,36.65
2017-08-25T12:32:26.835Z,36.63
2017-08-25T12:33:36.877Z,36.65
2017-08-25T12:34:48.358Z,36.74
2017-08-25T12:35:59.541Z,36.86
2017-08-25T12:37:09.949Z,36.89
2017-08-25T12:38:19.993Z,36.92
2017-08-25T12:39:30.341Z,36.97
2017-08-25T12:40:40.369Z,37.04
2017-08-25T12:41:50.724Z,37.11
2017-08-25T12:43:00.807Z,37.05
2017-08-25T12:44:10.845Z,37.09
2017-08-25T12:45:21.202Z,37.07
2017-08-25T12:46:31.785Z,36.96
2017-08-25T12:47:42.390Z,36.96
2017-08-25T12:48:52.474Z,36.93
2017-08-25T12:50:02.837Z,37.04
2017-08-25T12:51:13.180Z,36.97
2017-08-25T12:52:23.536Z,36.97
2017-08-25T12:53:33.571Z,36.95
2017-08-25T12:54:43.974Z,37
2017-08-25T12:55:54.530Z,37
2017-08-25T12:57:04.922Z,36.97
2017-08-25T12:58:15.000Z,36.97
2017-08-25T12:59:26.516Z,36.96
2017-08-25T13:00:36.632Z,36.93
2017-08-25T13:01:47.013Z,36.93
2017-08-25T13:02:57.073Z,36.95
2017-08-25T13:04:07.432Z,37
2017-08-25T13:05:17.799Z,37.12
2017-08-25T13:06:28.213Z,37.09
2017-08-25T13:07:42.891Z,36.99
2017-08-25T13:08:52.940Z,37.02
2017-08-25T13:10:02.999Z,36.96
2017-08-25T13:11:13.387Z,36.96
2017-08-25T13:12:23.803Z,36.97
2017-08-25T13:13:33.852Z,37.04
2017-08-25T13:14:43.582Z,36.88
2017-08-25T13:15:53.633Z,37
2017-08-25T13:17:04.002Z,37.05
2017-08-25T13:18:14.429Z,37.04
2017-08-25T13:19:24.785Z,37.07
2017-08-25T13:20:34.827Z,37.05
2017-08-25T13:21:44.866Z,37.12
2017-08-25T13:22:54.918Z,37.15
2017-08-25T13:24:05.329Z,37.18
2017-08-25T13:25:15.682Z,37.15
2017-08-25T13:26:25.727Z,37.19
2017-08-25T13:27:36.075Z,37.17
2017-08-25T13:28:47.952Z,37.08
2017-08-25T13:29:58.357Z,37.08
2017-08-25T13:31:08.724Z,37.08
2017-08-25T13:32:19.081Z,37.07
2017-08-25T13:33:29.140Z,37.05
2017-08-25T13:34:39.488Z,37.07
2017-08-25T13:35:49.891Z,37
2017-08-25T13:37:00.244Z,37.07
2017-08-25T13:38:10.324Z,37.04
2017-08-25T13:39:20.683Z,37.11
2017-08-25T13:40:30.733Z,37.05
2017-08-25T13:41:41.150Z,37.04
2017-08-25T13:42:54.024Z,37.12
2017-08-25T13:44:04.073Z,37.17
2017-08-25T13:45:15.100Z,37.3
2017-08-25T13:46:25.462Z,37.24
2017-08-25T13:47:36.105Z,37.34
2017-08-25T13:48:46.487Z,37.34
2017-08-25T13:49:58.468Z,37.29
2017-08-25T13:51:08.824Z,37.24
2017-08-25T13:52:19.187Z,37.29
2017-08-25T13:53:31.811Z,37.3
2017-08-25T13:54:42.157Z,37.24
2017-08-25T13:55:52.521Z,37.29
2017-08-25T13:57:02.889Z,37.14
2017-08-25T13:58:13.087Z,37.02
2017-08-25T13:59:23.494Z,37.05
2017-08-25T14:00:35.688Z,36.95
2017-08-25T14:01:47.563Z,36.95
2017-08-25T14:02:58.006Z,36.99
2017-08-25T14:04:08.374Z,36.97
2017-08-25T14:05:18.516Z,36.92
2017-08-25T14:06:28.867Z,36.92
2017-08-25T14:07:39.261Z,36.89
2017-08-25T14:08:49.313Z,36.8
2017-08-25T14:10:00.134Z,36.78
2017-08-25T14:11:10.684Z,36.78
2017-08-25T14:12:21.055Z,36.77
2017-08-25T14:13:31.464Z,36.81
2017-08-25T14:14:41.815Z,36.78
2017-08-25T14:15:52.187Z,36.7
2017-08-25T14:17:05.404Z,36.84
2017-08-25T14:18:15.758Z,36.77
2017-08-25T14:19:25.517Z,36.8
2017-08-25T14:20:36.379Z,36.68
2017-08-25T14:21:46.103Z,36.62
2017-08-25T14:22:56.202Z,36.68
2017-08-25T14:24:06.899Z,36.65
2017-08-25T14:25:18.093Z,36.73
2017-08-25T14:26:28.479Z,36.75
2017-08-25T14:27:39.845Z,36.77
2017-08-25T14:28:49.941Z,36.83
2017-08-25T14:30:00.306Z,36.75
2017-08-25T14:31:10.668Z,36.74
2017-08-25T14:32:20.711Z,36.73
2017-08-25T14:33:30.784Z,36.71
2017-08-25T14:34:41.177Z,36.75
2017-08-25T14:35:51.541Z,36.73
2017-08-25T14:37:01.619Z,36.7
2017-08-25T14:38:11.665Z,36.73
2017-08-25T14:39:22.283Z,36.86
2017-08-25T14:40:32.414Z,36.77
2017-08-25T14:41:43.782Z,36.83
2017-08-25T14:42:54.710Z,36.73
2017-08-25T14:44:04.802Z,36.7
2017-08-25T14:45:15.141Z,36.77
2017-08-25T14:46:25.250Z,36.83
2017-08-25T14:47:35.625Z,36.74
2017-08-25T14:48:45.653Z,36.71
2017-08-25T14:49:56.775Z,36.67
2017-08-25T14:51:07.453Z,36.59
2017-08-25T14:52:17.906Z,36.68
2017-08-25T14:53:28.965Z,36.71
2017-08-25T14:54:39.375Z,36.65
2017-08-25T14:55:49.162Z,36.7
2017-08-25T14:56:59.201Z,36.61
2017-08-25T14:58:09.308Z,36.58
2017-08-25T14:59:19.656Z,36.61
2017-08-25T15:00:30.000Z,36.61
2017-08-25T15:01:40.056Z,36.59
2017-08-25T15:02:50.465Z,36.62
2017-08-25T15:04:00.562Z,36.51
2017-08-25T15:05:13.370Z,36.56
2017-08-25T15:06:23.768Z,36.46
2017-08-25T15:07:34.126Z,36.39
2017-08-25T15:08:46.312Z,36.39
2017-08-25T15:09:56.747Z,36.43
2017-08-25T15:11:07.132Z,36.39
2017-08-25T15:12:17.511Z,36.32
2017-08-25T15:13:29.841Z,36.28
2017-08-25T15:14:40.248Z,36.21
2017-08-25T15:15:59.663Z,36.19
2017-08-25T15:17:10.034Z,36.09
2017-08-25T15:18:23.954Z,36.12
2017-08-25T15:19:34.320Z,36.12
2017-08-25T15:20:44.695Z,36.06
2017-08-25T15:21:54.815Z,36.12
2017-08-25T15:23:05.170Z,36.09
2017-08-25T15:24:15.577Z,36.06
2017-08-25T15:25:25.931Z,36.14
2017-08-25T15:26:36.346Z,36.09
2017-08-25T15:27:47.628Z,36.12
2017-08-25T15:28:58.022Z,35.92
2017-08-25T15:30:11.162Z,35.98
2017-08-25T15:31:21.532Z,35.94
2017-08-25T15:32:37.593Z,35.89
2017-08-25T15:33:47.300Z,35.74
2017-08-25T15:34:57.668Z,35.86
2017-08-25T15:36:08.050Z,35.77
2017-08-25T15:37:18.420Z,35.68
2017-08-25T15:38:28.849Z,35.71
2017-08-25T15:39:39.222Z,35.72
2017-08-25T15:40:49.579Z,35.8